sensor_id;sensor_type;location;lat;lon;timestamp;pressure;altitude;pressure_sealevel;temperature;humidity
20755;BME280;26385;48.470;7.938;2022-10-03T00:03:36;100795.78;;;15.02;100.00
20755;BME280;26385;48.470;7.938;2022-10-03T00:05:51;100807.09;;;15.03;100.00
20755;BME280;26385;48.470;7.938;2022-10-03T00:17:08;100802.72;;;14.97;100.00
20755;BME280;26385;48.470;7.938;2022-10-03T00:19:46;100800.06;;;14.96;100.00
20755;BME280;26385;48.470;7.938;2022-10-03T00:27:49;100805.16;;;14.86;100.00
20755;BME280;26385;48.470;7.938;2022-10-03T00:30:21;100803.41;;;14.85;100.00
20755;BME280;26385;48.470;7.938;2022-10-03T00:33:00;100799.00;;;14.81;100.00
20755;BME280;26385;48.470;7.938;2022-10-03T00:35:46;100797.22;;;14.79;100.00
20755;BME280;26385;48.470;7.938;2022-10-03T00:41:03;100791.09;;;14.74;100.00
20755;BME280;26385;48.470;7.938;2022-10-03T00:49:57;100806.63;;;14.68;100.00
20755;BME280;26385;48.470;7.938;2022-10-03T00:52:54;100820.56;;;14.71;100.00
20755;BME280;26385;48.470;7.938;2022-10-03T01:00:48;100831.84;;;14.69;100.00
20755;BME280;26385;48.470;7.938;2022-10-03T01:03:28;100848.31;;;14.66;100.00
20755;BME280;26385;48.470;7.938;2022-10-03T01:06:02;100854.34;;;14.62;100.00
20755;BME280;26385;48.470;7.938;2022-10-03T01:17:21;100870.06;;;14.68;100.00
20755;BME280;26385;48.470;7.938;2022-10-03T01:20:20;100869.16;;;14.64;100.00
20755;BME280;26385;48.470;7.938;2022-10-03T01:25:44;100870.81;;;14.59;100.00
20755;BME280;26385;48.470;7.938;2022-10-03T01:28:39;100866.47;;;14.60;100.00
20755;BME280;26385;48.470;7.938;2022-10-03T01:31:41;100875.13;;;14.57;100.00
20755;BME280;26385;48.470;7.938;2022-10-03T01:36:46;100877.63;;;14.50;100.00
20755;BME280;26385;48.470;7.938;2022-10-03T01:39:36;100869.78;;;14.48;100.00
20755;BME280;26385;48.470;7.938;2022-10-03T01:42:13;100875.88;;;14.49;100.00
20755;BME280;26385;48.470;7.938;2022-10-03T01:47:44;100884.41;;;14.43;100.00
20755;BME280;26385;48.470;7.938;2022-10-03T01:50:35;100885.28;;;14.42;100.00
20755;BME280;26385;48.470;7.938;2022-10-03T01:53:25;100888.72;;;14.41;100.00
20755;BME280;26385;48.470;7.938;2022-10-03T01:56:07;100880.09;;;14.44;100.00
20755;BME280;26385;48.470;7.938;2022-10-03T01:58:46;100887.84;;;14.41;100.00
20755;BME280;26385;48.470;7.938;2022-10-03T02:04:31;100890.34;;;14.33;100.00
20755;BME280;26385;48.470;7.938;2022-10-03T02:07:49;100893.81;;;14.33;100.00
20755;BME280;26385;48.470;7.938;2022-10-03T02:10:11;100891.22;;;14.33;100.00
20755;BME280;26385;48.470;7.938;2022-10-03T02:15:23;100896.41;;;14.33;100.00
20755;BME280;26385;48.470;7.938;2022-10-03T02:18:17;100892.03;;;14.31;100.00
20755;BME280;26385;48.470;7.938;2022-10-03T02:20:52;100888.50;;;14.29;100.00
20755;BME280;26385;48.470;7.938;2022-10-03T02:23:25;100887.59;;;14.25;100.00
20755;BME280;26385;48.470;7.938;2022-10-03T02:26:45;100898.00;;;14.25;100.00
20755;BME280;26385;48.470;7.938;2022-10-03T02:29:24;100882.34;;;14.22;100.00
20755;BME280;26385;48.470;7.938;2022-10-03T02:37:54;100884.81;;;14.16;100.00
20755;BME280;26385;48.470;7.938;2022-10-03T02:40:45;100875.19;;;14.12;100.00
20755;BME280;26385;48.470;7.938;2022-10-03T02:55:10;100863.84;;;14.08;100.00
20755;BME280;26385;48.470;7.938;2022-10-03T03:12:14;100871.63;;;14.07;100.00
20755;BME280;26385;48.470;7.938;2022-10-03T03:17:36;100869.78;;;14.01;100.00
20755;BME280;26385;48.470;7.938;2022-10-03T03:28:45;100855.63;;;13.86;100.00
20755;BME280;26385;48.470;7.938;2022-10-03T03:31:43;100857.44;;;13.90;100.00
20755;BME280;26385;48.470;7.938;2022-10-03T03:34:17;100857.44;;;13.90;100.00
20755;BME280;26385;48.470;7.938;2022-10-03T03:37:00;100859.22;;;13.92;100.00
20755;BME280;26385;48.470;7.938;2022-10-03T03:42:38;100861.88;;;13.95;100.00
20755;BME280;26385;48.470;7.938;2022-10-03T03:59:29;100865.94;;;13.79;100.00
20755;BME280;26385;48.470;7.938;2022-10-03T04:02:32;100876.28;;;13.78;100.00
20755;BME280;26385;48.470;7.938;2022-10-03T04:05:22;100875.41;;;13.77;100.00
20755;BME280;26385;48.470;7.938;2022-10-03T04:08:12;100878.88;;;13.76;100.00
20755;BME280;26385;48.470;7.938;2022-10-03T04:10:55;100884.16;;;13.79;100.00
20755;BME280;26385;48.470;7.938;2022-10-03T04:13:47;100882.38;;;13.78;100.00
20755;BME280;26385;48.470;7.938;2022-10-03T04:19:49;100886.66;;;13.75;100.00
20755;BME280;26385;48.470;7.938;2022-10-03T04:36:29;100891.72;;;13.67;100.00
20755;BME280;26385;48.470;7.938;2022-10-03T04:39:13;100897.63;;;13.60;100.00
20755;BME280;26385;48.470;7.938;2022-10-03T04:41:58;100896.69;;;13.55;100.00
20755;BME280;26385;48.470;7.938;2022-10-03T04:47:27;100898.34;;;13.51;99.72
20755;BME280;26385;48.470;7.938;2022-10-03T04:52:38;100898.25;;;13.47;100.00
20755;BME280;26385;48.470;7.938;2022-10-03T04:55:19;100904.38;;;13.50;100.00
20755;BME280;26385;48.470;7.938;2022-10-03T04:58:00;100899.97;;;13.46;100.00
20755;BME280;26385;48.470;7.938;2022-10-03T05:00:32;100903.44;;;13.45;100.00
20755;BME280;26385;48.470;7.938;2022-10-03T05:03:15;100908.66;;;13.47;100.00
20755;BME280;26385;48.470;7.938;2022-10-03T05:05:58;100908.56;;;13.42;100.00
20755;BME280;26385;48.470;7.938;2022-10-03T05:08:41;100911.16;;;13.42;100.00
20755;BME280;26385;48.470;7.938;2022-10-03T05:17:15;100927.47;;;13.35;100.00
20755;BME280;26385;48.470;7.938;2022-10-03T05:25:42;100937.72;;;13.28;100.00
20755;BME280;26385;48.470;7.938;2022-10-03T05:28:20;100940.31;;;13.28;100.00
20755;BME280;26385;48.470;7.938;2022-10-03T05:34:03;100939.41;;;13.26;100.00
20755;BME280;26385;48.470;7.938;2022-10-03T05:39:33;100940.94;;;13.19;100.00
20755;BME280;26385;48.470;7.938;2022-10-03T05:42:18;100940.94;;;13.17;100.00
20755;BME280;26385;48.470;7.938;2022-10-03T05:45:03;100948.69;;;13.16;100.00
20755;BME280;26385;48.470;7.938;2022-10-03T05:47:44;100957.28;;;13.12;100.00
20755;BME280;26385;48.470;7.938;2022-10-03T05:50:40;100959.69;;;13.81;100.00
20755;BME280;26385;48.470;7.938;2022-10-03T05:55:44;100963.47;;;14.42;100.00
20755;BME280;26385;48.470;7.938;2022-10-03T06:01:31;100973.59;;;14.72;100.00
20755;BME280;26385;48.470;7.938;2022-10-03T06:13:09;100975.91;;;15.08;90.06
20755;BME280;26385;48.470;7.938;2022-10-03T06:27:31;100970.09;;;13.79;96.06
20755;BME280;26385;48.470;7.938;2022-10-03T06:42:30;100980.66;;;13.46;99.41
20755;BME280;26385;48.470;7.938;2022-10-03T06:50:58;100983.09;;;13.39;99.64
20755;BME280;26385;48.470;7.938;2022-10-03T06:56:40;100976.94;;;13.37;99.89
20755;BME280;26385;48.470;7.938;2022-10-03T07:02:17;100995.16;;;13.37;100.00
20755;BME280;26385;48.470;7.938;2022-10-03T07:05:20;100996.09;;;13.39;100.00
20755;BME280;26385;48.470;7.938;2022-10-03T07:13:27;101006.75;;;13.51;99.94
20755;BME280;26385;48.470;7.938;2022-10-03T07:16:09;101003.41;;;13.55;99.14
20755;BME280;26385;48.470;7.938;2022-10-03T07:21:32;101006.06;;;13.58;99.26
20755;BME280;26385;48.470;7.938;2022-10-03T07:27:18;101006.72;;;13.49;99.24
20755;BME280;26385;48.470;7.938;2022-10-03T07:30:26;101004.16;;;13.51;99.28
20755;BME280;26385;48.470;7.938;2022-10-03T07:41:59;101024.31;;;13.60;99.43
20755;BME280;26385;48.470;7.938;2022-10-03T07:44:43;101036.63;;;13.67;99.39
20755;BME280;26385;48.470;7.938;2022-10-03T07:47:44;101033.97;;;13.65;98.92
20755;BME280;26385;48.470;7.938;2022-10-03T07:50:48;101036.66;;;13.68;98.99
20755;BME280;26385;48.470;7.938;2022-10-03T08:01:28;101037.88;;;13.86;98.65
20755;BME280;26385;48.470;7.938;2022-10-03T08:04:28;101032.75;;;13.89;97.55
20755;BME280;26385;48.470;7.938;2022-10-03T08:07:27;101043.13;;;13.87;97.79
20755;BME280;26385;48.470;7.938;2022-10-03T08:13:09;101055.53;;;13.97;97.30
20755;BME280;26385;48.470;7.938;2022-10-03T08:16:10;101045.16;;;14.00;96.32
20755;BME280;26385;48.470;7.938;2022-10-03T08:21:37;101043.41;;;13.99;96.38
20755;BME280;26385;48.470;7.938;2022-10-03T08:27:33;101033.97;;;14.04;95.42
20755;BME280;26385;48.470;7.938;2022-10-03T08:30:23;101031.41;;;14.07;95.21
20755;BME280;26385;48.470;7.938;2022-10-03T08:35:48;101029.81;;;14.14;95.87
20755;BME280;26385;48.470;7.938;2022-10-03T08:52:26;101032.31;;;14.52;92.55
20755;BME280;26385;48.470;7.938;2022-10-03T08:55:13;101034.31;;;14.65;91.73
20755;BME280;26385;48.470;7.938;2022-10-03T08:58:15;101031.63;;;14.62;91.57
20755;BME280;26385;48.470;7.938;2022-10-03T09:18:36;101045.22;;;14.46;90.19
20755;BME280;26385;48.470;7.938;2022-10-03T09:26:42;101046.50;;;14.68;90.81
20755;BME280;26385;48.470;7.938;2022-10-03T09:29:34;101055.25;;;14.71;89.91
20755;BME280;26385;48.470;7.938;2022-10-03T09:51:54;101039.00;;;15.98;84.99
20755;BME280;26385;48.470;7.938;2022-10-03T09:54:42;101038.06;;;15.94;84.88
20755;BME280;26385;48.470;7.938;2022-10-03T09:57:17;101033.78;;;15.98;84.70
20755;BME280;26385;48.470;7.938;2022-10-03T10:01:01;101030.22;;;15.93;84.56
20755;BME280;26385;48.470;7.938;2022-10-03T10:06:00;101039.00;;;15.98;84.51
20755;BME280;26385;48.470;7.938;2022-10-03T10:11:28;101033.72;;;15.95;84.07
20755;BME280;26385;48.470;7.938;2022-10-03T10:16:35;101030.50;;;16.16;83.58
20755;BME280;26385;48.470;7.938;2022-10-03T10:25:14;101026.31;;;17.23;83.99
20755;BME280;26385;48.470;7.938;2022-10-03T10:41:43;101008.69;;;19.21;67.74
20755;BME280;26385;48.470;7.938;2022-10-03T10:52:49;101002.63;;;20.98;63.43
20755;BME280;26385;48.470;7.938;2022-10-03T11:10:28;100985.00;;;21.06;62.73
20755;BME280;26385;48.470;7.938;2022-10-03T11:27:47;100959.19;;;23.25;54.03
20755;BME280;26385;48.470;7.938;2022-10-03T11:39:02;100953.63;;;24.24;51.70
20755;BME280;26385;48.470;7.938;2022-10-03T11:41:49;100963.81;;;24.42;51.26
20755;BME280;26385;48.470;7.938;2022-10-03T11:44:28;100954.66;;;23.77;50.89
20755;BME280;26385;48.470;7.938;2022-10-03T11:47:06;100948.84;;;23.58;52.79
20755;BME280;26385;48.470;7.938;2022-10-03T11:55:26;100946.47;;;23.44;51.36
20755;BME280;26385;48.470;7.938;2022-10-03T11:58:07;100942.53;;;23.22;52.85
20755;BME280;26385;48.470;7.938;2022-10-03T12:00:40;100936.22;;;23.27;52.48
20755;BME280;26385;48.470;7.938;2022-10-03T12:03:15;100929.31;;;23.67;52.47
20755;BME280;26385;48.470;7.938;2022-10-03T12:05:59;100930.94;;;24.12;50.72
20755;BME280;26385;48.470;7.938;2022-10-03T12:09:06;100932.31;;;24.30;48.48
20755;BME280;26385;48.470;7.938;2022-10-03T12:11:49;100927.88;;;24.32;48.34
20755;BME280;26385;48.470;7.938;2022-10-03T12:14:28;100925.25;;;24.32;46.93
20755;BME280;26385;48.470;7.938;2022-10-03T12:17:04;100920.31;;;24.53;46.82
20755;BME280;26385;48.470;7.938;2022-10-03T12:19:37;100919.94;;;25.02;46.22
20755;BME280;26385;48.470;7.938;2022-10-03T12:25:16;100912.44;;;25.50;46.40
20755;BME280;26385;48.470;7.938;2022-10-03T12:27:51;100915.47;;;25.06;45.37
20755;BME280;26385;48.470;7.938;2022-10-03T12:30:20;100909.88;;;24.82;48.07
20755;BME280;26385;48.470;7.938;2022-10-03T12:33:05;100906.69;;;24.32;47.49
20755;BME280;26385;48.470;7.938;2022-10-03T12:40:40;100909.03;;;24.45;48.91
20755;BME280;26385;48.470;7.938;2022-10-03T12:46:19;100900.72;;;24.60;46.05
20755;BME280;26385;48.470;7.938;2022-10-03T12:51:21;100895.59;;;24.52;46.22
20755;BME280;26385;48.470;7.938;2022-10-03T12:54:26;100886.94;;;24.80;45.49
20755;BME280;26385;48.470;7.938;2022-10-03T12:59:54;100890.06;;;24.95;45.97
20755;BME280;26385;48.470;7.938;2022-10-03T13:02:46;100881.69;;;24.78;47.23
20755;BME280;26385;48.470;7.938;2022-10-03T13:13:21;100878.78;;;24.87;45.32
20755;BME280;26385;48.470;7.938;2022-10-03T13:16:06;100883.25;;;24.15;46.07
20755;BME280;26385;48.470;7.938;2022-10-03T13:18:44;100878.81;;;23.77;47.85
20755;BME280;26385;48.470;7.938;2022-10-03T13:21:18;100869.75;;;23.47;48.83
20755;BME280;26385;48.470;7.938;2022-10-03T13:23:49;100871.56;;;23.85;48.49
20755;BME280;26385;48.470;7.938;2022-10-03T13:26:41;100863.22;;;24.04;47.62
20755;BME280;26385;48.470;7.938;2022-10-03T13:29:20;100869.28;;;24.09;47.79
20755;BME280;26385;48.470;7.938;2022-10-03T13:40:44;100874.91;;;22.59;50.97
20755;BME280;26385;48.470;7.938;2022-10-03T13:43:14;100870.66;;;22.51;51.67
20755;BME280;26385;48.470;7.938;2022-10-03T13:45:46;100863.44;;;22.60;51.04
20755;BME280;26385;48.470;7.938;2022-10-03T13:48:18;100852.50;;;22.82;50.71
20755;BME280;26385;48.470;7.938;2022-10-03T13:50:53;100849.47;;;23.03;49.37
20755;BME280;26385;48.470;7.938;2022-10-03T13:56:12;100840.63;;;23.07;49.96
20755;BME280;26385;48.470;7.938;2022-10-03T13:59:05;100847.44;;;23.17;49.78
20755;BME280;26385;48.470;7.938;2022-10-03T14:01:41;100837.38;;;22.91;50.02
20755;BME280;26385;48.470;7.938;2022-10-03T14:04:46;100839.56;;;22.68;50.79
20755;BME280;26385;48.470;7.938;2022-10-03T14:07:28;100837.31;;;22.96;50.55
20755;BME280;26385;48.470;7.938;2022-10-03T14:10:11;100828.25;;;23.08;50.93
20755;BME280;26385;48.470;7.938;2022-10-03T14:15:45;100828.63;;;22.40;51.35
20755;BME280;26385;48.470;7.938;2022-10-03T14:18:19;100824.16;;;21.88;52.29
20755;BME280;26385;48.470;7.938;2022-10-03T14:24:25;100828.41;;;21.33;52.55
20755;BME280;26385;48.470;7.938;2022-10-03T14:26:59;100825.31;;;20.98;53.52
20755;BME280;26385;48.470;7.938;2022-10-03T14:29:58;100825.63;;;20.66;53.23
20755;BME280;26385;48.470;7.938;2022-10-03T14:35:25;100823.34;;;20.24;55.77
20755;BME280;26385;48.470;7.938;2022-10-03T14:38:20;100830.38;;;20.22;56.32
20755;BME280;26385;48.470;7.938;2022-10-03T14:41:19;100821.63;;;20.22;56.74
20755;BME280;26385;48.470;7.938;2022-10-03T14:43:51;100821.75;;;20.05;57.75
20755;BME280;26385;48.470;7.938;2022-10-03T14:46:23;100826.19;;;19.99;57.95
20755;BME280;26385;48.470;7.938;2022-10-03T14:48:51;100820.94;;;19.99;57.62
20755;BME280;26385;48.470;7.938;2022-10-03T14:51:29;100821.94;;;19.79;56.76
20755;BME280;26385;48.470;7.938;2022-10-03T14:54:02;100815.91;;;19.63;58.14
20755;BME280;26385;48.470;7.938;2022-10-03T14:56:40;100815.91;;;19.62;58.63
20755;BME280;26385;48.470;7.938;2022-10-03T14:59:33;100816.91;;;19.35;57.76
20755;BME280;26385;48.470;7.938;2022-10-03T15:02:13;100818.69;;;19.27;58.93
20755;BME280;26385;48.470;7.938;2022-10-03T15:04:40;100819.56;;;19.24;58.71
20755;BME280;26385;48.470;7.938;2022-10-03T15:07:06;100816.06;;;19.24;58.97
20755;BME280;26385;48.470;7.938;2022-10-03T15:14:43;100803.91;;;19.09;58.82
20755;BME280;26385;48.470;7.938;2022-10-03T15:17:17;100808.28;;;18.98;59.11
20755;BME280;26385;48.470;7.938;2022-10-03T15:19:54;100813.59;;;18.84;58.17
20755;BME280;26385;48.470;7.938;2022-10-03T15:22:34;100809.22;;;18.66;59.76
20755;BME280;26385;48.470;7.938;2022-10-03T15:25:09;100814.47;;;18.72;60.10
20755;BME280;26385;48.470;7.938;2022-10-03T15:27:44;100817.09;;;18.66;60.48
20755;BME280;26385;48.470;7.938;2022-10-03T15:30:24;100805.75;;;18.70;60.47
20755;BME280;26385;48.470;7.938;2022-10-03T15:32:52;100813.63;;;18.70;59.94
20755;BME280;26385;48.470;7.938;2022-10-03T15:35:26;100810.97;;;18.61;59.56
20755;BME280;26385;48.470;7.938;2022-10-03T15:37:53;100807.47;;;18.56;59.93
20755;BME280;26385;48.470;7.938;2022-10-03T15:40:31;100817.13;;;18.43;60.07
20755;BME280;26385;48.470;7.938;2022-10-03T15:43:04;100818.88;;;18.40;59.60
20755;BME280;26385;48.470;7.938;2022-10-03T15:45:36;100814.50;;;18.26;59.93
20755;BME280;26385;48.470;7.938;2022-10-03T15:48:04;100809.25;;;18.13;59.89
20755;BME280;26385;48.470;7.938;2022-10-03T15:50:38;100808.41;;;18.00;59.76
20755;BME280;26385;48.470;7.938;2022-10-03T15:53:24;100799.66;;;17.92;60.20
20755;BME280;26385;48.470;7.938;2022-10-03T15:55:59;100798.78;;;17.93;60.51
20755;BME280;26385;48.470;7.938;2022-10-03T15:58:32;100790.03;;;17.91;60.48
20755;BME280;26385;48.470;7.938;2022-10-03T16:01:15;100797.88;;;17.88;60.80
20755;BME280;26385;48.470;7.938;2022-10-03T16:03:54;100796.13;;;17.90;61.13
20755;BME280;26385;48.470;7.938;2022-10-03T16:06:43;100792.66;;;17.83;60.77
20755;BME280;26385;48.470;7.938;2022-10-03T16:09:31;100797.00;;;17.80;61.08
20755;BME280;26385;48.470;7.938;2022-10-03T16:14:41;100801.28;;;17.65;60.77
20755;BME280;26385;48.470;7.938;2022-10-03T16:17:21;100805.66;;;17.56;61.48
20755;BME280;26385;48.470;7.938;2022-10-03T16:20:13;100809.13;;;17.49;61.48
20755;BME280;26385;48.470;7.938;2022-10-03T16:22:45;100807.41;;;17.52;62.03
20755;BME280;26385;48.470;7.938;2022-10-03T16:25:30;100801.25;;;17.45;63.15
20755;BME280;26385;48.470;7.938;2022-10-03T16:28:04;100803.88;;;17.41;63.14
20755;BME280;26385;48.470;7.938;2022-10-03T16:30:37;100801.19;;;17.32;63.40
20755;BME280;26385;48.470;7.938;2022-10-03T16:33:11;100801.25;;;17.45;70.90
20755;BME280;26385;48.470;7.938;2022-10-03T16:35:56;100801.28;;;17.56;70.10
20755;BME280;26385;48.470;7.938;2022-10-03T16:38:43;100794.31;;;17.58;68.79
20755;BME280;26385;48.470;7.938;2022-10-03T16:43:34;100807.41;;;17.63;65.59
20755;BME280;26385;48.470;7.938;2022-10-03T16:46:03;100807.41;;;17.60;64.46
20755;BME280;26385;48.470;7.938;2022-10-03T16:48:34;100808.25;;;17.45;64.38
20755;BME280;26385;48.470;7.938;2022-10-03T16:51:23;100806.41;;;17.20;65.06
20755;BME280;26385;48.470;7.938;2022-10-03T16:53:51;100809.81;;;17.05;65.39
20755;BME280;26385;48.470;7.938;2022-10-03T16:56:28;100802.84;;;17.04;65.45
20755;BME280;26385;48.470;7.938;2022-10-03T16:59:00;100811.56;;;17.00;65.99
20755;BME280;26385;48.470;7.938;2022-10-03T17:01:48;100808.91;;;16.97;66.20
20755;BME280;26385;48.470;7.938;2022-10-03T17:04:22;100807.13;;;16.82;66.68
20755;BME280;26385;48.470;7.938;2022-10-03T17:06:54;100795.75;;;16.80;66.56
20755;BME280;26385;48.470;7.938;2022-10-03T17:09:27;100810.50;;;16.69;67.73
20755;BME280;26385;48.470;7.938;2022-10-03T17:11:58;100805.19;;;16.59;66.83
20755;BME280;26385;48.470;7.938;2022-10-03T17:14:29;100796.41;;;16.51;67.99
20755;BME280;26385;48.470;7.938;2022-10-03T17:17:21;100799.91;;;16.55;67.30
20755;BME280;26385;48.470;7.938;2022-10-03T17:20:02;100797.28;;;16.49;68.27
20755;BME280;26385;48.470;7.938;2022-10-03T17:22:36;100792.88;;;16.45;68.75
20755;BME280;26385;48.470;7.938;2022-10-03T17:27:48;100792.81;;;16.32;69.38
20755;BME280;26385;48.470;7.938;2022-10-03T17:35:58;100782.09;;;16.00;70.38
20755;BME280;26385;48.470;7.938;2022-10-03T17:41:34;100785.41;;;15.81;71.79
20755;BME280;26385;48.470;7.938;2022-10-03T17:44:24;100787.97;;;15.80;72.17
20755;BME280;26385;48.470;7.938;2022-10-03T17:47:13;100796.69;;;15.79;71.77
20755;BME280;26385;48.470;7.938;2022-10-03T17:52:52;100797.44;;;15.64;72.45
20755;BME280;26385;48.470;7.938;2022-10-03T17:55:26;100792.03;;;15.50;73.51
20755;BME280;26385;48.470;7.938;2022-10-03T17:57:57;100789.44;;;15.55;72.53
20755;BME280;26385;48.470;7.938;2022-10-03T18:00:30;100787.59;;;15.44;73.79
20755;BME280;26385;48.470;7.938;2022-10-03T18:03:12;100786.72;;;15.45;73.23
20755;BME280;26385;48.470;7.938;2022-10-03T18:05:50;100777.13;;;15.40;73.32
20755;BME280;26385;48.470;7.938;2022-10-03T18:08:18;100777.91;;;15.33;73.56
20755;BME280;26385;48.470;7.938;2022-10-03T18:10:48;100776.16;;;15.30;74.24
20755;BME280;26385;48.470;7.938;2022-10-03T18:13:36;100776.19;;;15.35;73.90
20755;BME280;26385;48.470;7.938;2022-10-03T18:16:11;100768.34;;;15.32;74.05
20755;BME280;26385;48.470;7.938;2022-10-03T18:22:05;100761.91;;;15.04;75.62
20755;BME280;26385;48.470;7.938;2022-10-03T18:24:39;100774.25;;;15.17;75.04
20755;BME280;26385;48.470;7.938;2022-10-03T18:30:18;100776.56;;;14.96;76.23
20755;BME280;26385;48.470;7.938;2022-10-03T18:32:47;100777.44;;;14.95;76.69
20755;BME280;26385;48.470;7.938;2022-10-03T18:35:14;100772.09;;;14.84;77.36
20755;BME280;26385;48.470;7.938;2022-10-03T18:42:44;100791.06;;;14.72;78.23
20755;BME280;26385;48.470;7.938;2022-10-03T18:45:22;100795.47;;;14.79;77.90
20755;BME280;26385;48.470;7.938;2022-10-03T18:47:54;100793.78;;;14.81;78.06
20755;BME280;26385;48.470;7.938;2022-10-03T18:50:30;100784.13;;;14.73;77.88
20755;BME280;26385;48.470;7.938;2022-10-03T18:56:08;100771.81;;;14.64;78.67
20755;BME280;26385;48.470;7.938;2022-10-03T18:58:36;100771.75;;;14.58;79.53
20755;BME280;26385;48.470;7.938;2022-10-03T19:03:39;100782.06;;;14.52;80.74
20755;BME280;26385;48.470;7.938;2022-10-03T19:08:54;100760.28;;;14.47;81.03
20755;BME280;26385;48.470;7.938;2022-10-03T19:11:30;100768.94;;;14.46;81.37
20755;BME280;26385;48.470;7.938;2022-10-03T19:14:09;100749.00;;;14.48;80.66
20755;BME280;26385;48.470;7.938;2022-10-03T19:19:52;100754.72;;;14.27;81.95
20755;BME280;26385;48.470;7.938;2022-10-03T19:22:23;100770.44;;;14.31;81.46
20755;BME280;26385;48.470;7.938;2022-10-03T19:24:50;100780.81;;;14.28;81.95
20755;BME280;26385;48.470;7.938;2022-10-03T19:27:18;100766.13;;;14.33;81.75
20755;BME280;26385;48.470;7.938;2022-10-03T19:29:51;100770.31;;;14.24;82.57
20755;BME280;26385;48.470;7.938;2022-10-03T19:32:25;100765.88;;;14.17;83.40
20755;BME280;26385;48.470;7.938;2022-10-03T19:34:57;100771.06;;;14.15;83.57
20755;BME280;26385;48.470;7.938;2022-10-03T19:39:55;100769.19;;;14.08;83.18
20755;BME280;26385;48.470;7.938;2022-10-03T19:42:36;100771.00;;;14.12;83.52
20755;BME280;26385;48.470;7.938;2022-10-03T19:45:10;100769.19;;;14.08;83.34
20755;BME280;26385;48.470;7.938;2022-10-03T19:47:37;100765.63;;;14.03;83.61
20755;BME280;26385;48.470;7.938;2022-10-03T19:50:29;100759.53;;;14.01;84.02
20755;BME280;26385;48.470;7.938;2022-10-03T19:52:57;100759.50;;;13.98;84.46
20755;BME280;26385;48.470;7.938;2022-10-03T19:55:32;100766.34;;;13.94;85.27
20755;BME280;26385;48.470;7.938;2022-10-03T19:58:00;100766.41;;;13.96;85.01
20755;BME280;26385;48.470;7.938;2022-10-03T20:00:38;100762.03;;;13.95;85.31
20755;BME280;26385;48.470;7.938;2022-10-03T20:03:21;100759.41;;;13.93;85.15
20755;BME280;26385;48.470;7.938;2022-10-03T20:13:59;100759.19;;;13.79;84.90
20755;BME280;26385;48.470;7.938;2022-10-03T20:16:28;100755.53;;;13.70;85.15
20755;BME280;26385;48.470;7.938;2022-10-03T20:19:04;100761.59;;;13.69;85.82
20755;BME280;26385;48.470;7.938;2022-10-03T20:21:31;100757.31;;;13.72;85.35
20755;BME280;26385;48.470;7.938;2022-10-03T20:23:58;100740.84;;;13.73;85.64
20755;BME280;26385;48.470;7.938;2022-10-03T20:26:38;100746.53;;;13.52;85.93
20755;BME280;26385;48.470;7.938;2022-10-03T20:29:19;100750.06;;;13.55;85.90
20755;BME280;26385;48.470;7.938;2022-10-03T20:31:47;100744.03;;;13.57;86.07
20755;BME280;26385;48.470;7.938;2022-10-03T20:34:15;100743.25;;;13.17;88.78
20755;BME280;26385;48.470;7.938;2022-10-03T20:36:47;100744.06;;;13.15;88.42
20755;BME280;26385;48.470;7.938;2022-10-03T20:39:24;100745.25;;;12.87;90.26
20755;BME280;26385;48.470;7.938;2022-10-03T20:42:07;100749.66;;;12.91;91.27
20755;BME280;26385;48.470;7.938;2022-10-03T20:45:01;100753.44;;;13.05;90.78
20755;BME280;26385;48.470;7.938;2022-10-03T20:50:24;100740.41;;;13.49;96.42
20755;BME280;26385;48.470;7.938;2022-10-03T20:53:03;100737.44;;;13.77;95.66
20755;BME280;26385;48.470;7.938;2022-10-03T20:55:43;100742.31;;;14.09;97.01
20755;BME280;26385;48.470;7.938;2022-10-03T21:00:45;100728.06;;;14.45;88.82
20755;BME280;26385;48.470;7.938;2022-10-03T21:03:13;100736.03;;;14.52;89.02
20755;BME280;26385;48.470;7.938;2022-10-03T21:05:49;100738.59;;;14.48;85.94
20755;BME280;26385;48.470;7.938;2022-10-03T21:08:34;100736.34;;;14.16;82.87
20755;BME280;26385;48.470;7.938;2022-10-03T21:11:15;100731.78;;;14.03;84.28
20755;BME280;26385;48.470;7.938;2022-10-03T21:13:48;100726.41;;;13.94;84.84
20755;BME280;26385;48.470;7.938;2022-10-03T21:16:20;100723.53;;;13.75;85.22
20755;BME280;26385;48.470;7.938;2022-10-03T21:18:48;100726.81;;;13.65;85.65
20755;BME280;26385;48.470;7.938;2022-10-03T21:27:23;100735.06;;;13.40;86.59
20755;BME280;26385;48.470;7.938;2022-10-03T21:29:54;100735.88;;;13.37;86.68
20755;BME280;26385;48.470;7.938;2022-10-03T21:35:32;100719.84;;;13.17;87.67
20755;BME280;26385;48.470;7.938;2022-10-03T21:40:49;100724.88;;;13.08;88.10
20755;BME280;26385;48.470;7.938;2022-10-03T21:43:32;100718.63;;;13.00;88.07
20755;BME280;26385;48.470;7.938;2022-10-03T21:46:08;100722.94;;;12.98;88.61
20755;BME280;26385;48.470;7.938;2022-10-03T21:54:39;100719.38;;;12.94;87.34
20755;BME280;26385;48.470;7.938;2022-10-03T21:57:11;100718.31;;;12.83;88.17
20755;BME280;26385;48.470;7.938;2022-10-03T22:00:14;100717.38;;;12.80;89.11
20755;BME280;26385;48.470;7.938;2022-10-03T22:03:01;100702.53;;;12.74;89.09
20755;BME280;26385;48.470;7.938;2022-10-03T22:05:43;100692.06;;;12.70;88.66
20755;BME280;26385;48.470;7.938;2022-10-03T22:08:23;100695.56;;;12.72;88.51
20755;BME280;26385;48.470;7.938;2022-10-03T22:11:13;100693.81;;;12.71;89.14
20755;BME280;26385;48.470;7.938;2022-10-03T22:13:46;100704.09;;;12.67;88.07
20755;BME280;26385;48.470;7.938;2022-10-03T22:16:24;100698.91;;;12.67;88.13
20755;BME280;26385;48.470;7.938;2022-10-03T22:19:19;100694.47;;;12.62;88.29